Time;durP1;ratioP1;P1;durP2;ratioP2;P2;SDS_P1;SDS_P2;PMS_P1;PMS_P2;Temp;Humidity;BMP_temperature;BMP_pressure;BME280_temperature;BME280_humidity;BME280_pressure;Samples;Min_cycle;Max_cycle;Signal;HPM_P1;HPM_P2
2022/02/21 00:01:30;;;;;;;1.38;1.10;;;;;;;3.85;100.00;98009.38;8488429;33;20435;-76
2022/02/21 00:06:34;;;;;;;1.70;0.90;;;;;;;3.79;98.89;97994.84;8489653;33;20526;-75
2022/02/21 00:11:38;;;;;;;1.88;1.10;;;;;;;3.55;98.87;97967.84;8488007;33;21135;-74
2022/02/21 00:16:41;;;;;;;0.93;0.90;;;;;;;3.56;98.78;97938.50;8488311;33;20180;-75
2022/02/21 00:21:45;;;;;;;1.45;1.00;;;;;;;3.79;98.40;98009.94;8488800;33;20153;-74
2022/02/21 00:26:48;;;;;;;0.80;0.80;;;;;;;3.85;97.35;98010.22;8484301;33;20415;-76
2022/02/21 00:31:51;;;;;;;3.13;1.25;;;;;;;3.79;96.26;98047.13;8482012;33;20421;-76
2022/02/21 00:36:56;;;;;;;2.10;1.00;;;;;;;4.00;95.81;98061.09;8484848;33;20968;-76
2022/02/21 00:41:59;;;;;;;1.05;0.98;;;;;;;4.07;96.09;98034.81;8484255;33;20149;-76
2022/02/21 00:47:02;;;;;;;2.53;1.05;;;;;;;3.83;96.64;98054.66;8483482;33;20203;-76
2022/02/21 00:52:07;;;;;;;4.07;1.20;;;;;;;3.68;95.95;98090.56;8489999;33;20173;-76
2022/02/21 00:57:10;;;;;;;1.48;1.02;;;;;;;3.63;96.09;98098.09;8490412;33;20188;-75
2022/02/21 01:02:13;;;;;;;2.05;1.40;;;;;;;3.72;96.06;98087.47;8487748;33;20224;-77
2022/02/21 01:07:17;;;;;;;4.40;2.20;;;;;;;3.36;96.16;98111.97;8486878;33;20495;-75
2022/02/21 01:12:21;;;;;;;2.65;1.90;;;;;;;3.50;94.97;98125.69;8489615;33;20558;-75
2022/02/21 01:17:24;;;;;;;3.08;2.03;;;;;;;3.70;95.34;98133.72;8489544;33;20158;-76
2022/02/21 01:22:28;;;;;;;2.45;1.88;;;;;;;3.17;95.00;98153.34;8489210;33;20145;-75
2022/02/21 01:27:31;;;;;;;2.17;1.88;;;;;;;3.17;93.28;98150.69;8489665;33;20551;-75
2022/02/21 01:32:35;;;;;;;3.38;1.52;;;;;;;3.05;93.02;98151.75;8489758;33;21004;-77
2022/02/21 01:37:39;;;;;;;1.90;1.70;;;;;;;3.31;93.99;98154.81;8489707;33;20716;-75
2022/02/21 01:42:42;;;;;;;2.53;1.98;;;;;;;2.92;91.40;98153.78;8490344;33;20543;-76
2022/02/21 01:47:45;;;;;;;3.15;1.83;;;;;;;3.07;91.63;98168.38;8487896;33;21123;-76
2022/02/21 01:52:50;;;;;;;3.50;1.92;;;;;;;3.05;91.06;98187.06;8483245;33;20487;-76
2022/02/21 01:57:53;;;;;;;4.18;2.03;;;;;;;2.94;89.95;98181.00;8486586;33;20495;-76
2022/02/21 02:02:56;;;;;;;4.35;2.28;;;;;;;3.04;89.66;98222.53;8499147;33;20429;-75
2022/02/21 02:08:01;;;;;;;15.52;2.55;;;;;;;3.13;88.46;98218.25;8501953;33;20415;-75
2022/02/21 02:13:04;;;;;;;3.58;1.58;;;;;;;3.11;87.06;98191.03;8490922;33;20434;-76
2022/02/21 02:18:08;;;;;;;7.03;2.03;;;;;;;3.22;85.94;98196.25;8488167;33;20427;-76
2022/02/21 02:23:12;;;;;;;7.38;2.85;;;;;;;2.92;84.25;98204.16;8484321;33;20148;-74
2022/02/21 02:28:15;;;;;;;8.07;2.25;;;;;;;3.06;83.56;98207.31;8486060;33;20578;-75
2022/02/21 02:33:18;;;;;;;4.53;1.80;;;;;;;3.08;82.74;98216.97;8487714;33;21074;-74
2022/02/21 02:38:23;;;;;;;4.78;1.70;;;;;;;3.04;81.92;98206.63;8488432;33;20422;-74
2022/02/21 02:43:30;;;;;;;4.10;2.13;;;;;;;3.14;81.83;98229.72;8488449;33;21101;-75
2022/02/21 02:48:34;;;;;;;5.43;1.98;;;;;;;2.95;80.52;98219.81;8486172;33;20419;-74
2022/02/21 02:53:38;;;;;;;12.85;3.10;;;;;;;3.03;80.63;98243.88;8486805;33;20684;-74
2022/02/21 02:58:41;;;;;;;6.28;2.15;;;;;;;2.80;80.63;98241.34;8484026;33;20469;-74
2022/02/21 03:03:44;;;;;;;6.90;2.60;;;;;;;2.85;79.30;98264.78;8487245;33;20468;-74
2022/02/21 03:08:49;;;;;;;12.02;2.60;;;;;;;2.98;78.81;98254.03;8488423;33;20408;-74
2022/02/21 03:13:52;;;;;;;6.53;2.67;;;;;;;3.30;78.82;98253.97;8490994;33;20240;-74
2022/02/21 03:18:55;;;;;;;11.55;3.00;;;;;;;2.93;78.49;98245.59;8484017;33;22091;-74
2022/02/21 03:24:00;;;;;;;9.23;3.23;;;;;;;3.07;77.10;98279.75;8482603;33;20462;-74
2022/02/21 03:29:03;;;;;;;12.68;2.53;;;;;;;2.99;76.87;98267.16;8482283;33;20335;-75
2022/02/21 03:34:07;;;;;;;8.57;2.75;;;;;;;2.68;79.92;98321.88;8486968;33;20419;-74
2022/02/21 03:39:11;;;;;;;12.13;2.45;;;;;;;1.76;83.97;98309.78;8490256;33;20149;-75
2022/02/21 03:44:14;;;;;;;14.73;3.47;;;;;;;1.70;86.45;98311.06;8494864;33;20461;-75
2022/02/21 03:49:17;;;;;;;6.05;2.60;;;;;;;2.01;84.60;98303.41;8493109;33;21020;-75
2022/02/21 03:54:22;;;;;;;5.75;2.72;;;;;;;1.76;81.15;98354.78;8495059;33;21047;-75
2022/02/21 03:59:25;;;;;;;4.70;2.47;;;;;;;1.48;82.90;98341.84;8489953;33;20626;-74
2022/02/21 04:04:28;;;;;;;5.03;2.03;;;;;;;1.49;82.32;98345.31;8493988;33;20191;-75
2022/02/21 04:09:32;;;;;;;5.28;2.33;;;;;;;1.65;82.53;98361.72;8495923;33;20204;-75
2022/02/21 04:14:35;;;;;;;4.57;1.83;;;;;;;1.90;82.63;98378.38;8496126;33;20580;-74
2022/02/21 04:19:38;;;;;;;5.90;2.50;;;;;;;1.74;82.71;98376.06;8494799;33;21365;-75
2022/02/21 04:24:43;;;;;;;4.57;2.45;;;;;;;1.52;82.38;98387.44;8495297;33;20485;-74
2022/02/21 04:29:46;;;;;;;8.80;2.00;;;;;;;1.59;81.07;98416.91;8502604;33;20273;-75
2022/02/21 04:34:49;;;;;;;5.13;2.25;;;;;;;1.09;84.39;98387.13;8507166;33;20629;-76
2022/02/21 04:39:53;;;;;;;4.90;2.60;;;;;;;0.96;86.71;98418.91;8510673;33;20186;-75
2022/02/21 04:44:56;;;;;;;10.30;2.30;;;;;;;1.26;84.43;98415.81;8514145;33;20436;-75
2022/02/21 04:50:00;;;;;;;6.05;2.22;;;;;;;1.26;83.23;98403.47;8492363;33;20509;-75
2022/02/21 04:55:06;;;;;;;4.05;2.40;;;;;;;0.93;81.91;98392.69;8489314;33;20239;-74
2022/02/21 05:00:13;;;;;;;15.27;2.83;;;;;;;0.92;82.28;98413.00;8490400;33;20417;-75
2022/02/21 05:05:16;;;;;;;7.18;2.03;;;;;;;0.53;87.93;98436.06;8491308;33;20453;-76
2022/02/21 05:10:21;;;;;;;5.03;1.88;;;;;;;0.52;88.69;98430.84;8489409;33;20410;-75
2022/02/21 05:15:24;;;;;;;5.50;1.90;;;;;;;0.46;86.79;98416.28;8489613;33;20157;-75
2022/02/21 05:20:27;;;;;;;7.30;2.33;;;;;;;0.45;85.39;98434.91;8491480;33;20153;-75
2022/02/21 05:25:31;;;;;;;3.07;2.47;;;;;;;0.88;85.50;98447.69;8488373;33;20149;-76
2022/02/21 05:30:35;;;;;;;5.40;2.50;;;;;;;0.45;89.00;98430.47;8493072;33;20483;-76
2022/02/21 05:35:38;;;;;;;2.80;1.63;;;;;;;0.41;88.65;98447.47;8501272;33;20283;-76
2022/02/21 05:40:42;;;;;;;4.70;2.77;;;;;;;0.47;88.39;98454.13;8532740;33;20236;-76
2022/02/21 05:45:48;;;;;;;4.73;2.23;;;;;;;0.47;87.59;98454.13;8529244;33;21042;-76
2022/02/21 05:50:51;;;;;;;3.70;1.63;;;;;;;0.59;86.31;98455.91;8526154;33;20413;-76
2022/02/21 05:55:56;;;;;;;4.80;2.17;;;;;;;0.75;85.47;98448.59;8554369;33;20405;-76
2022/02/21 06:00:59;;;;;;;9.83;2.57;;;;;;;0.88;83.86;98453.84;8549370;33;20183;-75
2022/02/21 06:06:03;;;;;;;5.57;2.13;;;;;;;0.66;82.62;98482.72;8543687;33;20509;-76
2022/02/21 06:11:07;;;;;;;5.40;2.00;;;;;;;1.02;82.61;98476.66;8539915;33;20223;-75
2022/02/21 06:16:10;;;;;;;7.60;2.57;;;;;;;0.91;83.15;98488.00;8540216;33;20453;-75
2022/02/21 06:21:14;;;;;;;5.17;1.90;;;;;;;0.92;82.96;98480.91;8539686;33;21077;-75
2022/02/21 06:26:18;;;;;;;4.53;1.80;;;;;;;0.95;82.42;98478.88;8537423;33;20253;-75
2022/02/21 06:31:21;;;;;;;5.93;1.57;;;;;;;0.90;82.01;98490.72;8487680;33;20501;-75
2022/02/21 06:36:24;;;;;;;5.82;2.33;;;;;;;0.94;81.57;98484.28;8475768;33;20435;-76
2022/02/21 06:41:29;;;;;;;6.68;2.30;;;;;;;1.15;81.33;98506.53;8481046;33;20433;-77
2022/02/21 06:46:32;;;;;;;7.17;1.97;;;;;;;0.71;81.65;98522.91;8475738;33;20858;-77
2022/02/21 06:51:36;;;;;;;5.73;2.57;;;;;;;0.87;81.29;98517.38;8479081;33;20184;-76
2022/02/21 06:56:41;;;;;;;5.17;2.27;;;;;;;0.82;81.91;98520.34;8492436;33;20196;-75
2022/02/21 07:01:44;;;;;;;2.77;2.37;;;;;;;0.77;81.77;98515.41;8486521;33;20450;-77
2022/02/21 07:06:47;;;;;;;9.33;2.13;;;;;;;0.98;82.02;98533.31;8486348;33;20976;-76
2022/02/21 07:11:51;;;;;;;10.67;4.70;;;;;;;1.13;81.49;98523.47;8493493;33;20441;-77
2022/02/21 07:16:54;;;;;;;6.80;2.57;;;;;;;1.05;80.61;98521.38;8487666;33;20419;-77
2022/02/21 07:21:59;;;;;;;5.60;2.33;;;;;;;1.32;79.74;98534.41;8495326;33;20863;-77
2022/02/21 07:27:04;;;;;;;7.93;2.90;;;;;;;1.35;79.38;98536.00;8487596;33;21479;-77
2022/02/21 07:32:08;;;;;;;5.57;2.40;;;;;;;1.25;80.14;98539.28;8487904;33;21372;-77
2022/02/21 07:37:11;;;;;;;5.17;2.83;;;;;;;1.49;78.97;98530.53;8487768;33;20550;-75
2022/02/21 07:42:16;;;;;;;6.50;2.57;;;;;;;1.34;78.76;98537.78;8486246;33;20509;-76
2022/02/21 07:47:20;;;;;;;4.68;2.17;;;;;;;1.45;78.95;98552.88;8488363;33;20173;-77
2022/02/21 07:52:23;;;;;;;2.10;1.80;;;;;;;1.46;78.55;98570.47;8459973;33;20178;-77
2022/02/21 07:57:27;;;;;;;6.35;2.53;;;;;;;1.49;79.26;98552.56;8482909;33;20284;-77
2022/02/21 08:02:30;;;;;;;9.52;2.95;;;;;;;1.84;79.08;98549.13;8483755;33;21009;-76
2022/02/21 08:07:34;;;;;;;9.32;2.85;;;;;;;1.65;77.65;98557.56;8482387;33;20997;-76
2022/02/21 08:12:39;;;;;;;9.35;2.95;;;;;;;1.95;77.61;98556.28;8482697;33;20211;-76
2022/02/21 08:17:44;;;;;;;6.80;2.60;;;;;;;1.70;76.69;98578.41;8538312;33;20153;-76
2022/02/21 08:22:48;;;;;;;5.55;2.75;;;;;;;1.98;75.83;98545.44;8505202;33;20493;-74
2022/02/21 08:27:53;;;;;;;7.10;3.03;;;;;;;1.89;75.97;98541.69;8518182;33;20488;-75
2022/02/21 08:32:56;;;;;;;11.48;2.97;;;;;;;1.78;75.66;98564.59;8512400;33;21203;-75
2022/02/21 08:38:02;;;;;;;6.50;2.35;;;;;;;1.91;75.41;98558.28;8508221;33;20419;-76
2022/02/21 08:43:08;;;;;;;4.95;2.28;;;;;;;1.85;75.48;98571.97;8479735;33;20168;-76
2022/02/21 08:48:11;;;;;;;7.50;2.95;;;;;;;1.98;74.80;98594.94;8515562;33;20994;-76
2022/02/21 08:53:14;;;;;;;8.52;3.33;;;;;;;2.18;73.42;98554.53;8503528;33;20430;-76
2022/02/21 08:58:19;;;;;;;8.48;3.05;;;;;;;2.17;74.22;98561.66;8526733;33;20454;-76
2022/02/21 09:03:26;;;;;;;10.13;3.13;;;;;;;2.23;73.78;98551.56;8521213;33;20147;-76
2022/02/21 09:08:31;;;;;;;8.88;3.83;;;;;;;2.52;72.94;98565.22;8486071;33;20157;-75
2022/02/21 09:13:36;;;;;;;13.95;3.58;;;;;;;2.31;72.64;98562.41;8518395;33;20524;-76
2022/02/21 09:18:39;;;;;;;8.93;3.20;;;;;;;2.34;72.44;98531.22;8493016;33;20182;-76
2022/02/21 09:23:42;;;;;;;5.32;2.25;;;;;;;2.74;71.00;98535.28;8507211;33;20188;-76
2022/02/21 09:28:46;;;;;;;9.95;4.00;;;;;;;2.71;70.25;98522.25;8512650;33;20186;-74
2022/02/21 09:33:49;;;;;;;2.95;2.08;;;;;;;2.74;70.14;98540.56;8512703;33;20986;-76
2022/02/21 09:38:53;;;;;;;8.30;3.38;;;;;;;2.57;70.66;98531.28;8506435;33;20427;-76
2022/02/21 09:43:58;;;;;;;5.97;2.83;;;;;;;2.42;70.34;98522.69;8517396;33;21165;-75
2022/02/21 09:49:02;;;;;;;7.95;2.95;;;;;;;2.56;70.03;98525.16;8514032;33;20622;-74
2022/02/21 09:54:05;;;;;;;10.80;3.80;;;;;;;2.63;70.25;98519.34;8523651;33;20258;-75
2022/02/21 09:59:10;;;;;;;5.80;3.58;;;;;;;2.65;69.92;98506.84;8522672;33;20187;-73
2022/02/21 10:04:14;;;;;;;5.82;3.65;;;;;;;2.50;69.63;98509.69;8490336;33;20424;-76
2022/02/21 10:09:17;;;;;;;8.85;4.28;;;;;;;2.54;69.75;98520.91;8518190;33;20172;-75
2022/02/21 10:14:24;;;;;;;9.30;3.58;;;;;;;2.66;69.09;98501.44;8515898;33;20537;-76
2022/02/21 10:19:30;;;;;;;11.30;3.95;;;;;;;2.97;68.88;98496.34;8516140;33;20128;-75
2022/02/21 10:24:40;;;;;;;10.35;3.85;;;;;;;2.87;68.12;98487.44;8522731;33;20175;-75
2022/02/21 10:29:50;;;;;;;7.72;3.40;;;;;;;2.93;67.92;98484.28;8528943;33;20165;-75
2022/02/21 10:34:54;;;;;;;5.95;3.17;;;;;;;2.88;68.30;98473.19;8511360;33;20203;-74
2022/02/21 10:40:06;;;;;;;9.32;4.30;;;;;;;3.12;68.27;98471.22;8501953;33;20418;-76
2022/02/21 10:45:15;;;;;;;10.02;3.53;;;;;;;2.69;71.23;98468.50;8511080;33;20409;-76
2022/02/21 10:50:18;;;;;;;9.00;4.03;;;;;;;2.46;74.87;98479.06;8503174;33;20227;-76
2022/02/21 10:55:21;;;;;;;9.30;4.63;;;;;;;1.16;83.64;98460.63;8514245;33;20187;-75
2022/02/21 11:00:26;;;;;;;8.93;4.13;;;;;;;0.77;87.40;98491.59;8509262;33;21120;-75
2022/02/21 11:05:32;;;;;;;6.10;2.93;;;;;;;0.66;88.28;98475.69;8500651;33;20184;-75
2022/02/21 11:10:36;;;;;;;8.80;4.13;;;;;;;0.33;90.70;98497.34;8492943;33;20473;-75
2022/02/21 11:15:40;;;;;;;8.77;4.43;;;;;;;0.63;91.26;98496.16;8502183;33;20125;-76
2022/02/21 11:20:45;;;;;;;6.30;3.13;;;;;;;0.22;93.15;98473.47;8503692;33;21288;-76
2022/02/21 11:25:54;;;;;;;11.50;4.53;;;;;;;0.33;92.97;98457.72;8505831;33;20154;-76
2022/02/21 11:31:02;;;;;;;8.90;3.50;;;;;;;0.46;92.59;98433.94;8504031;33;20159;-76
2022/02/21 11:36:08;;;;;;;6.77;2.67;;;;;;;0.53;92.30;98440.50;8509310;33;20202;-76
2022/02/21 11:41:13;;;;;;;3.00;1.67;;;;;;;0.74;91.96;98401.09;8506942;33;20232;-76
2022/02/21 11:46:25;;;;;;;5.77;3.03;;;;;;;0.48;92.81;98418.84;8519118;33;21037;-77
2022/02/21 11:51:31;;;;;;;9.97;2.57;;;;;;;0.61;92.88;98391.44;8480638;33;20712;-76
2022/02/21 11:56:59;;;;;;;8.27;3.77;;;;;;;0.49;93.70;98404.66;8514024;33;20416;-76
2022/02/21 12:02:09;;;;;;;10.93;3.53;;;;;;;0.89;92.79;98373.56;8513026;33;20162;-75
2022/02/21 12:07:32;;;;;;;5.17;2.20;;;;;;;0.73;92.89;98362.44;8490489;33;21522;-77
2022/02/21 12:12:54;;;;;;;5.10;3.27;;;;;;;0.71;93.56;98369.63;8515826;33;20157;-76
2022/02/21 12:18:46;;;;;;;5.97;2.87;;;;;;;0.59;93.97;98340.50;8529745;33;20414;-76
2022/02/21 12:24:07;;;;;;;5.87;3.27;;;;;;;0.91;93.86;98347.88;8489173;33;20866;-75
2022/02/21 12:29:16;;;;;;;3.38;2.08;;;;;;;1.30;93.10;98306.19;8486319;33;20224;-76
2022/02/21 12:34:20;;;;;;;3.73;2.20;;;;;;;0.89;94.17;98319.88;8486540;33;20186;-75
2022/02/21 12:39:26;;;;;;;5.53;2.93;;;;;;;1.01;93.97;98319.78;8484423;33;20149;-75
2022/02/21 12:44:29;;;;;;;4.30;2.27;;;;;;;1.04;93.03;98301.06;8488539;33;21963;-76
2022/02/21 12:49:37;;;;;;;5.57;3.15;;;;;;;1.07;93.80;98326.44;8490043;33;20180;-75
2022/02/21 12:54:53;;;;;;;4.22;1.95;;;;;;;1.21;92.98;98342.13;8490304;33;20272;-76
2022/02/21 12:59:56;;;;;;;5.63;3.17;;;;;;;1.30;93.16;98311.47;8489286;33;20129;-76
2022/02/21 13:05:01;;;;;;;3.38;2.08;;;;;;;1.10;94.33;98291.84;8489105;33;20866;-74
2022/02/21 13:10:08;;;;;;;5.00;2.70;;;;;;;1.07;93.81;98289.44;8511684;33;20577;-74
2022/02/21 13:15:12;;;;;;;6.77;2.90;;;;;;;0.95;94.53;98262.09;8489902;33;20243;-75
2022/02/21 13:20:18;;;;;;;4.88;3.20;;;;;;;1.06;94.88;98270.06;8489906;33;22013;-74
2022/02/21 13:25:22;;;;;;;3.33;3.00;;;;;;;1.38;94.71;98276.53;8492666;33;20570;-75
2022/02/21 13:30:31;;;;;;;6.63;3.10;;;;;;;1.32;95.30;98261.97;8524947;33;20432;-74
2022/02/21 13:35:35;;;;;;;3.72;2.58;;;;;;;1.31;94.44;98265.53;8529361;33;21513;-75
2022/02/21 13:40:40;;;;;;;3.65;2.15;;;;;;;1.20;94.86;98254.94;8535878;33;20574;-73
2022/02/21 13:45:50;;;;;;;4.20;2.60;;;;;;;1.49;94.35;98258.84;8528223;33;20920;-74
2022/02/21 13:50:56;;;;;;;4.35;3.05;;;;;;;1.34;95.83;98257.38;8523250;33;20173;-75
2022/02/21 13:56:01;;;;;;;5.38;3.15;;;;;;;1.40;96.03;98264.00;8506115;33;21773;-75
2022/02/21 14:01:14;;;;;;;4.60;3.13;;;;;;;1.54;96.42;98258.50;8521970;33;20916;-75
2022/02/21 14:06:21;;;;;;;5.68;3.22;;;;;;;1.60;95.66;98257.19;8526280;33;20242;-75
2022/02/21 14:11:41;;;;;;;9.52;4.10;;;;;;;1.66;96.30;98267.28;8537974;33;20183;-74
2022/02/21 14:16:53;;;;;;;6.15;4.00;;;;;;;1.83;96.11;98258.84;8535149;33;20188;-74
2022/02/21 14:21:59;;;;;;;5.35;4.60;;;;;;;1.66;97.13;98286.66;8530566;33;20338;-76
2022/02/21 14:27:02;;;;;;;4.43;3.65;;;;;;;1.96;95.84;98261.38;8516342;33;21524;-75
2022/02/21 14:32:06;;;;;;;5.65;3.70;;;;;;;1.72;96.21;98272.09;8508625;33;20155;-75
2022/02/21 14:37:10;;;;;;;6.18;3.58;;;;;;;1.79;96.71;98264.53;8505546;33;20165;-75
2022/02/21 14:42:15;;;;;;;4.55;4.07;;;;;;;1.83;97.28;98277.38;8509310;33;20508;-75
2022/02/21 14:47:18;;;;;;;4.18;3.60;;;;;;;1.96;96.54;98266.69;8512294;33;20176;-75
2022/02/21 14:52:22;;;;;;;5.45;3.50;;;;;;;2.11;96.66;98285.78;8513122;33;20136;-75
2022/02/21 14:57:26;;;;;;;4.60;3.80;;;;;;;2.20;96.58;98284.25;8504773;33;20237;-75
2022/02/21 15:02:29;;;;;;;5.35;3.65;;;;;;;2.36;96.65;98300.59;8504460;33;20141;-76
2022/02/21 15:07:33;;;;;;;5.28;4.63;;;;;;;2.55;97.35;98315.88;8515932;33;20172;-75
2022/02/21 15:12:38;;;;;;;5.22;3.20;;;;;;;2.67;96.83;98316.69;8511043;33;20491;-76
2022/02/21 15:17:41;;;;;;;6.32;3.95;;;;;;;2.64;96.75;98331.03;8515235;33;20617;-75
2022/02/21 15:22:46;;;;;;;1.52;0.90;;;;;;;2.70;97.91;98341.16;8511814;33;20996;-77
2022/02/21 15:27:49;;;;;;;0.60;0.60;;;;;;;2.82;98.10;98344.59;8537207;33;20755;-76
2022/02/21 15:32:52;;;;;;;0.50;0.50;;;;;;;2.89;99.38;98384.75;8532571;33;20180;-75
2022/02/21 15:37:56;;;;;;;0.82;0.82;;;;;;;3.08;97.96;98419.41;8530642;33;20279;-76
2022/02/21 15:42:59;;;;;;;2.28;2.08;;;;;;;3.52;96.32;98433.50;8530170;33;20551;-74
2022/02/21 15:48:03;;;;;;;0.50;0.50;;;;;;;3.39;95.85;98460.19;8527039;33;20477;-76
2022/02/21 15:53:10;;;;;;;0.50;0.50;;;;;;;3.84;94.70;98499.88;8529803;33;20924;-76
2022/02/21 15:58:14;;;;;;;0.40;0.40;;;;;;;3.85;95.11;98519.28;8491889;33;20449;-75
2022/02/21 16:03:17;;;;;;;0.90;0.90;;;;;;;4.28;93.44;98547.56;8569408;33;20175;-76
2022/02/21 16:08:22;;;;;;;0.60;0.60;;;;;;;4.28;92.96;98572.38;8556856;33;20465;-76
2022/02/21 16:13:25;;;;;;;1.23;1.23;;;;;;;4.06;93.30;98610.50;8547851;33;20184;-76
2022/02/21 16:18:28;;;;;;;0.80;0.80;;;;;;;4.16;93.87;98614.06;8549824;33;20243;-76
2022/02/21 16:23:33;;;;;;;0.50;0.50;;;;;;;4.15;93.55;98620.38;8549635;33;20972;-75
2022/02/21 16:28:36;;;;;;;0.40;0.40;;;;;;;4.26;92.17;98663.81;8549077;33;20417;-75
2022/02/21 16:33:39;;;;;;;0.70;0.70;;;;;;;4.37;90.77;98716.94;8556846;33;20851;-76
2022/02/21 16:38:44;;;;;;;0.50;0.50;;;;;;;4.27;89.02;98721.31;8543421;33;20511;-76
2022/02/21 16:43:47;;;;;;;0.60;0.60;;;;;;;3.93;88.78;98743.47;8539956;33;20162;-75
2022/02/21 16:48:52;;;;;;;1.35;1.35;;;;;;;4.11;87.14;98799.63;8539304;33;21155;-74
2022/02/21 16:53:57;;;;;;;2.35;2.25;;;;;;;3.61;88.39;98814.22;8501196;33;20503;-74
2022/02/21 16:59:00;;;;;;;17.40;1.65;;;;;;;3.89;87.13;98855.41;8520048;33;20683;-73
2022/02/21 17:04:03;;;;;;;0.60;0.60;;;;;;;4.03;87.04;98855.19;8542767;33;20217;-72
2022/02/21 17:09:08;;;;;;;1.08;1.08;;;;;;;3.64;86.88;98905.09;8535819;33;20988;-73
2022/02/21 17:14:11;;;;;;;0.50;0.50;;;;;;;3.53;86.62;98934.25;8479998;33;20247;-72
2022/02/21 17:19:14;;;;;;;0.80;0.80;;;;;;;3.26;86.92;98977.84;8506307;33;20476;-74
2022/02/21 17:24:19;;;;;;;0.65;0.65;;;;;;;2.94;85.42;99011.16;8507292;33;20509;-73
2022/02/21 17:29:22;;;;;;;0.60;0.60;;;;;;;3.14;86.21;99018.50;8510910;33;20437;-73
2022/02/21 17:34:25;;;;;;;0.70;0.70;;;;;;;3.07;85.79;99057.03;8512283;33;20549;-73
2022/02/21 17:39:30;;;;;;;0.85;0.85;;;;;;;3.17;85.44;99079.31;8513944;33;20513;-73
2022/02/21 17:44:33;;;;;;;0.50;0.50;;;;;;;3.26;86.04;99097.25;8494851;33;20310;-73
2022/02/21 17:49:36;;;;;;;0.95;0.95;;;;;;;3.41;85.55;99105.09;8504367;33;20839;-73
2022/02/21 17:54:40;;;;;;;0.50;0.50;;;;;;;3.38;85.76;99119.41;8505702;33;20170;-72
2022/02/21 17:59:43;;;;;;;0.40;0.40;;;;;;;3.38;85.18;99130.03;8495779;33;21060;-74
2022/02/21 18:04:46;;;;;;;0.50;0.50;;;;;;;3.05;86.03;99141.22;8499607;33;20418;-74
2022/02/21 18:09:51;;;;;;;1.35;1.35;;;;;;;2.98;87.00;99154.06;8499026;33;20442;-73
2022/02/21 18:14:56;;;;;;;0.85;0.85;;;;;;;2.80;87.38;99177.41;8490961;33;20184;-73
2022/02/21 18:19:59;;;;;;;1.38;1.35;;;;;;;3.00;86.99;99185.78;8487116;33;20129;-74
2022/02/21 18:25:04;;;;;;;0.60;0.60;;;;;;;2.80;86.49;99184.50;8488948;33;20129;-74
2022/02/21 18:30:09;;;;;;;0.50;0.50;;;;;;;2.73;87.07;99204.44;8489974;33;20931;-73
2022/02/21 18:35:12;;;;;;;1.83;1.77;;;;;;;2.96;86.59;99194.91;8490715;33;20435;-73
2022/02/21 18:40:19;;;;;;;1.13;1.13;;;;;;;3.24;86.29;99215.94;8490805;33;20475;-74
2022/02/21 18:45:24;;;;;;;0.93;0.93;;;;;;;2.71;87.27;99230.19;8492762;33;21340;-74
2022/02/21 18:50:27;;;;;;;0.40;0.40;;;;;;;2.95;87.02;99252.41;8489343;33;20145;-73
2022/02/21 18:55:33;;;;;;;0.60;0.60;;;;;;;3.01;87.34;99256.44;8509978;33;20180;-73
2022/02/21 19:00:37;;;;;;;0.85;0.85;;;;;;;2.78;88.82;99261.50;8488674;33;20411;-74
2022/02/21 19:05:41;;;;;;;0.60;0.60;;;;;;;3.06;87.61;99271.09;8490686;33;20133;-76
2022/02/21 19:10:47;;;;;;;30.42;2.78;;;;;;;3.19;87.78;99283.56;8503001;33;20133;-74
2022/02/21 19:15:50;;;;;;;0.95;0.95;;;;;;;2.76;90.38;99284.63;8506568;33;21586;-74
2022/02/21 19:20:55;;;;;;;1.80;1.80;;;;;;;2.71;91.07;99301.78;8488261;33;20189;-74
2022/02/21 19:26:00;;;;;;;0.60;0.60;;;;;;;2.88;92.13;99312.16;8488006;33;20511;-75
2022/02/21 19:31:05;;;;;;;0.50;0.50;;;;;;;2.80;93.20;99315.31;8488732;33;20224;-74
2022/02/21 19:36:08;;;;;;;0.63;0.63;;;;;;;2.83;94.18;99317.75;8513405;33;20428;-75
2022/02/21 19:41:13;;;;;;;0.40;0.40;;;;;;;3.00;93.75;99339.66;8491930;33;20480;-75
2022/02/21 19:46:16;;;;;;;0.50;0.50;;;;;;;3.07;94.15;99343.59;8492533;33;20264;-74
2022/02/21 19:51:20;;;;;;;0.50;0.50;;;;;;;3.07;94.18;99354.22;8494782;33;21057;-75
2022/02/21 19:56:30;;;;;;;0.98;0.98;;;;;;;3.27;93.54;99366.16;8495682;33;20282;-76
2022/02/21 20:01:35;;;;;;;0.60;0.60;;;;;;;3.09;94.37;99396.56;8512927;33;20246;-75
2022/02/21 20:06:38;;;;;;;1.00;1.00;;;;;;;3.43;93.53;99400.50;8524900;33;21493;-76
2022/02/21 20:11:42;;;;;;;0.77;0.77;;;;;;;3.31;93.54;99422.53;8542929;33;20561;-75
2022/02/21 20:16:45;;;;;;;1.17;1.17;;;;;;;3.43;93.73;99427.06;8546974;33;20494;-75
2022/02/21 20:21:48;;;;;;;0.65;0.65;;;;;;;3.23;94.64;99420.38;8548868;33;21181;-75
2022/02/21 20:26:53;;;;;;;0.80;0.80;;;;;;;3.41;94.32;99434.25;8544578;33;20426;-76
2022/02/21 20:31:57;;;;;;;2.15;1.17;;;;;;;3.27;93.45;99467.03;8545001;33;20410;-75
2022/02/21 20:37:00;;;;;;;0.65;0.65;;;;;;;3.30;94.31;99473.94;8544877;33;20422;-76
2022/02/21 20:42:10;;;;;;;0.90;0.90;;;;;;;3.18;92.88;99503.00;8547202;33;20176;-75
2022/02/21 20:47:14;;;;;;;0.50;0.50;;;;;;;3.25;93.14;99517.53;8550663;33;20432;-76
2022/02/21 20:52:18;;;;;;;0.70;0.70;;;;;;;3.43;92.67;99527.94;8563465;33;20415;-75
2022/02/21 20:57:22;;;;;;;0.63;0.63;;;;;;;3.26;92.53;99529.88;8563358;33;20424;-75
2022/02/21 21:02:26;;;;;;;1.75;1.65;;;;;;;3.23;92.71;99556.59;8564709;33;20472;-75
2022/02/21 21:07:29;;;;;;;1.73;1.48;;;;;;;3.41;91.79;99578.47;8566260;33;20169;-75
2022/02/21 21:12:33;;;;;;;0.50;0.50;;;;;;;3.14;92.09;99567.81;8566717;33;20253;-75
2022/02/21 21:17:37;;;;;;;1.67;0.95;;;;;;;3.25;91.67;99594.53;8568445;33;20506;-74
2022/02/21 21:22:40;;;;;;;2.67;2.47;;;;;;;3.21;90.65;99608.06;8566318;33;21592;-75
2022/02/21 21:27:44;;;;;;;0.60;0.60;;;;;;;3.13;89.21;99621.00;8561842;33;20175;-76
2022/02/21 21:32:47;;;;;;;0.88;0.88;;;;;;;3.15;89.64;99638.50;8561083;33;20406;-76
2022/02/21 21:37:51;;;;;;;0.60;0.60;;;;;;;2.98;90.29;99657.28;8561129;33;20908;-75
2022/02/21 21:42:55;;;;;;;0.70;0.70;;;;;;;2.94;91.36;99680.50;8559813;33;20144;-75
2022/02/21 21:47:59;;;;;;;0.52;0.52;;;;;;;2.93;91.19;99668.16;8553499;33;20430;-75
2022/02/21 21:53:02;;;;;;;0.88;0.88;;;;;;;2.78;92.25;99679.72;8553880;33;20453;-74
2022/02/21 21:58:07;;;;;;;0.50;0.50;;;;;;;2.81;91.85;99704.25;8511116;33;20148;-74
2022/02/21 22:03:11;;;;;;;0.88;0.88;;;;;;;3.12;91.29;99702.38;8555374;33;22178;-73
2022/02/21 22:08:15;;;;;;;0.55;0.55;;;;;;;3.09;91.07;99713.19;8552760;33;20143;-74
2022/02/21 22:13:20;;;;;;;0.57;0.57;;;;;;;3.00;90.61;99727.88;8547055;33;21053;-74
2022/02/21 22:18:23;;;;;;;0.60;0.60;;;;;;;3.07;89.88;99738.97;8546282;33;20436;-74
2022/02/21 22:23:26;;;;;;;0.60;0.60;;;;;;;3.56;89.15;99735.13;8546458;33;20434;-74
2022/02/21 22:28:31;;;;;;;0.60;0.60;;;;;;;3.24;88.02;99744.13;8544333;33;20414;-74
2022/02/21 22:33:34;;;;;;;7.38;3.08;;;;;;;3.37;87.48;99751.31;8545784;33;20187;-73
2022/02/21 22:38:39;;;;;;;15.98;4.38;;;;;;;3.22;86.20;99784.97;8544514;33;20420;-74
2022/02/21 22:43:44;;;;;;;18.38;4.80;;;;;;;3.46;86.36;99796.78;8546074;33;20424;-74
2022/02/21 22:48:47;;;;;;;18.30;5.32;;;;;;;3.27;86.15;99810.28;8545172;33;20532;-74
2022/02/21 22:53:50;;;;;;;19.70;4.55;;;;;;;3.26;84.90;99815.69;8541906;33;20408;-73
2022/02/21 22:58:55;;;;;;;18.58;4.50;;;;;;;3.45;85.13;99826.91;8543378;33;20442;-73
2022/02/21 23:09:18;;;;;;;23.48;4.95;;;;;;;3.43;85.37;99854.53;8541159;33;20425;-74
2022/02/21 23:14:23;;;;;;;14.32;4.93;;;;;;;3.14;86.44;99867.69;8539977;33;20483;-73
2022/02/21 23:19:27;;;;;;;16.38;4.85;;;;;;;3.34;86.31;99858.56;8544033;33;20240;-74
2022/02/21 23:24:30;;;;;;;27.38;6.10;;;;;;;3.00;85.73;99872.97;8542809;33;20410;-73
2022/02/21 23:29:34;;;;;;;22.10;5.72;;;;;;;3.64;84.39;99890.41;8541181;33;20402;-74
2022/02/21 23:34:37;;;;;;;23.20;5.20;;;;;;;3.54;83.43;99914.94;8541676;33;20402;-74
2022/02/21 23:39:41;;;;;;;17.35;5.07;;;;;;;3.62;85.17;99945.44;8541037;33;21469;-73
2022/02/21 23:44:45;;;;;;;24.33;5.57;;;;;;;3.31;85.56;99958.78;8541790;33;20813;-73
2022/02/21 23:49:48;;;;;;;12.80;4.55;;;;;;;3.22;85.52;99970.78;8540965;33;20951;-73
2022/02/21 23:54:51;;;;;;;19.80;5.63;;;;;;;2.64;85.17;99985.50;8542056;33;20422;-74
2022/02/21 23:59:56;;;;;;;13.95;3.65;;;;;;;2.82;83.75;99989.78;8541180;33;20478;-73
